createdAt,value
2022-10-07T00:00:27.720Z,0.00
2022-10-07T00:01:27.768Z,0.00
2022-10-07T00:02:27.752Z,0.00
2022-10-07T00:03:27.665Z,0.00
2022-10-07T00:04:27.679Z,0.00
2022-10-07T00:05:27.675Z,0.00
2022-10-07T00:06:27.651Z,0.00
2022-10-07T00:07:27.638Z,0.00
2022-10-07T00:08:27.629Z,0.00
2022-10-07T00:09:27.626Z,0.00
2022-10-07T00:10:27.642Z,0.00
2022-10-07T00:11:27.601Z,0.00
2022-10-07T00:12:27.592Z,0.00
2022-10-07T00:13:27.585Z,0.00
2022-10-07T00:14:27.584Z,0.00
2022-10-07T00:15:27.604Z,0.00
2022-10-07T00:16:27.612Z,0.00
2022-10-07T00:17:27.564Z,0.00
2022-10-07T00:18:27.549Z,0.00
2022-10-07T00:19:27.543Z,0.00
2022-10-07T00:20:27.565Z,0.00
2022-10-07T00:21:27.521Z,0.00
2022-10-07T00:22:27.525Z,0.00
2022-10-07T00:23:27.511Z,0.00
2022-10-07T00:24:27.505Z,0.00
2022-10-07T00:25:27.523Z,0.00
2022-10-07T00:26:27.481Z,0.00
2022-10-07T00:27:27.468Z,0.00
2022-10-07T00:28:27.552Z,0.00
2022-10-07T00:29:27.465Z,0.00
2022-10-07T00:30:27.511Z,0.00
2022-10-07T00:31:27.449Z,0.00
2022-10-07T00:32:27.435Z,0.00
2022-10-07T00:33:27.427Z,0.00
2022-10-07T00:34:27.418Z,0.00
2022-10-07T00:35:27.376Z,0.00
2022-10-07T00:36:27.356Z,0.00
2022-10-07T00:37:27.347Z,0.00
2022-10-07T00:38:27.285Z,0.00
2022-10-07T00:39:27.275Z,0.00
2022-10-07T00:40:27.296Z,0.00
2022-10-07T00:41:27.254Z,0.00
2022-10-07T00:42:27.247Z,0.00
2022-10-07T00:43:27.247Z,0.00
2022-10-07T00:44:27.233Z,0.00
2022-10-07T00:45:27.251Z,0.00
2022-10-07T00:46:27.233Z,0.00
2022-10-07T00:47:27.210Z,0.00
2022-10-07T00:48:27.197Z,0.00
2022-10-07T00:49:27.229Z,0.00
2022-10-07T00:50:27.231Z,0.00
2022-10-07T00:51:27.172Z,0.00
2022-10-07T00:52:27.166Z,0.00
2022-10-07T00:53:27.156Z,0.00
2022-10-07T00:54:27.152Z,0.00
2022-10-07T00:55:27.184Z,0.00
2022-10-07T00:56:27.129Z,0.00
2022-10-07T00:57:27.122Z,0.00
2022-10-07T00:58:27.121Z,0.00
2022-10-07T00:59:27.107Z,0.00
2022-10-07T01:00:27.102Z,0.00
2022-10-07T01:01:27.169Z,0.00
2022-10-07T01:02:27.146Z,0.00
2022-10-07T01:03:27.122Z,0.00
2022-10-07T01:04:27.069Z,0.00
2022-10-07T01:05:27.063Z,0.00
2022-10-07T01:06:27.081Z,0.00
2022-10-07T01:07:27.035Z,0.00
2022-10-07T01:08:27.078Z,0.00
2022-10-07T01:09:27.192Z,0.00
2022-10-07T01:10:27.013Z,0.00
2022-10-07T01:11:27.036Z,0.00
2022-10-07T01:12:26.992Z,0.00
2022-10-07T01:13:26.990Z,0.00
2022-10-07T01:14:26.980Z,0.00
2022-10-07T01:15:26.975Z,0.00
2022-10-07T01:16:27.064Z,0.00
2022-10-07T01:17:26.958Z,0.00
2022-10-07T01:18:26.942Z,0.00
2022-10-07T01:19:26.948Z,0.00
2022-10-07T01:20:26.931Z,0.00
2022-10-07T01:21:26.950Z,0.00
2022-10-07T01:22:26.916Z,0.00
2022-10-07T01:23:26.911Z,0.00
2022-10-07T01:24:26.947Z,0.00
2022-10-07T01:25:26.893Z,0.00
2022-10-07T01:26:26.923Z,0.00
2022-10-07T01:27:26.884Z,0.00
2022-10-07T01:28:26.924Z,0.00
2022-10-07T01:29:26.862Z,0.00
2022-10-07T01:30:26.862Z,0.00
2022-10-07T01:31:26.874Z,0.00
2022-10-07T01:32:26.845Z,0.00
2022-10-07T01:33:26.829Z,0.00
2022-10-07T01:34:26.818Z,0.00
2022-10-07T01:35:26.815Z,0.00
2022-10-07T01:36:26.834Z,0.00
2022-10-07T01:37:26.806Z,0.00
2022-10-07T01:38:26.794Z,0.00
2022-10-07T01:39:26.781Z,0.00
2022-10-07T01:40:26.777Z,0.00
2022-10-07T01:41:26.801Z,0.00
2022-10-07T01:42:26.794Z,0.00
2022-10-07T01:43:26.749Z,0.00
2022-10-07T01:44:26.744Z,0.00
2022-10-07T01:45:26.740Z,0.00
2022-10-07T01:46:26.787Z,0.00
2022-10-07T01:47:26.722Z,0.00
2022-10-07T01:48:26.740Z,0.00
2022-10-07T01:49:26.704Z,0.00
2022-10-07T01:50:26.698Z,0.00
2022-10-07T01:51:26.709Z,0.00
2022-10-07T01:52:27.795Z,0.00
2022-10-07T01:53:26.673Z,0.00
2022-10-07T01:54:27.661Z,0.00
2022-10-07T01:55:26.653Z,0.00
2022-10-07T01:56:26.684Z,0.00
2022-10-07T01:57:26.640Z,0.00
2022-10-07T01:58:26.638Z,0.00
2022-10-07T01:59:26.669Z,0.00
2022-10-07T02:00:26.616Z,0.00
2022-10-07T02:01:26.688Z,0.00
2022-10-07T02:02:26.625Z,0.00
2022-10-07T02:03:26.642Z,0.00
2022-10-07T02:04:26.579Z,0.00
2022-10-07T02:05:26.573Z,0.00
2022-10-07T02:06:26.560Z,0.00
2022-10-07T02:07:26.591Z,0.00
2022-10-07T02:08:26.557Z,0.00
2022-10-07T02:09:26.547Z,0.00
2022-10-07T02:10:26.527Z,0.00
2022-10-07T02:11:26.521Z,0.00
2022-10-07T02:12:26.542Z,0.00
2022-10-07T02:13:26.506Z,0.00
2022-10-07T02:14:26.495Z,0.00
2022-10-07T02:15:26.503Z,0.00
2022-10-07T02:16:26.555Z,0.00
2022-10-07T02:17:26.500Z,0.00
2022-10-07T02:18:26.464Z,0.00
2022-10-07T02:19:26.461Z,0.00
2022-10-07T02:20:26.457Z,0.00
2022-10-07T02:21:26.442Z,0.00
2022-10-07T02:22:26.461Z,0.00
2022-10-07T02:23:26.422Z,0.00
2022-10-07T02:24:26.418Z,0.00
2022-10-07T02:25:26.408Z,0.00
2022-10-07T02:26:26.389Z,0.00
2022-10-07T02:27:26.419Z,0.00
2022-10-07T02:28:26.416Z,0.00
2022-10-07T02:29:26.372Z,0.00
2022-10-07T02:30:26.371Z,0.00
2022-10-07T02:31:26.414Z,0.00
2022-10-07T02:32:26.378Z,0.00
2022-10-07T02:33:26.342Z,0.00
2022-10-07T02:34:26.343Z,0.00
2022-10-07T02:35:26.333Z,0.00
2022-10-07T02:36:26.324Z,0.00
2022-10-07T02:37:26.377Z,0.00
2022-10-07T02:38:26.312Z,0.00
2022-10-07T02:39:26.292Z,0.00
2022-10-07T02:40:26.291Z,0.00
2022-10-07T02:41:26.278Z,0.00
2022-10-07T02:42:26.300Z,0.00
2022-10-07T02:43:26.267Z,0.00
2022-10-07T02:44:26.257Z,0.00
2022-10-07T02:45:27.047Z,0.00
2022-10-07T02:46:27.292Z,0.00
2022-10-07T02:47:26.253Z,0.00
2022-10-07T02:48:26.223Z,0.00
2022-10-07T02:49:26.258Z,0.00
2022-10-07T02:50:26.205Z,0.00
2022-10-07T02:51:26.201Z,0.00
2022-10-07T02:52:26.220Z,0.00
2022-10-07T02:53:26.182Z,0.00
2022-10-07T02:54:26.170Z,0.00
2022-10-07T02:55:26.178Z,0.00
2022-10-07T02:56:26.154Z,0.00
2022-10-07T02:57:26.169Z,0.00
2022-10-07T02:58:26.133Z,0.00
2022-10-07T02:59:26.133Z,0.00
2022-10-07T03:00:26.124Z,0.00
2022-10-07T03:01:26.164Z,0.00
2022-10-07T03:02:26.135Z,0.00
2022-10-07T03:03:26.129Z,0.00
2022-10-07T03:04:26.092Z,0.00
2022-10-07T03:05:26.132Z,0.00
2022-10-07T03:06:26.078Z,0.00
2022-10-07T03:07:26.105Z,0.00
2022-10-07T03:08:26.060Z,0.00
2022-10-07T03:09:26.041Z,0.00
2022-10-07T03:10:26.041Z,0.00
2022-10-07T03:11:26.054Z,0.00
2022-10-07T03:12:26.024Z,0.00
2022-10-07T03:13:26.042Z,0.00
2022-10-07T03:14:26.000Z,0.00
2022-10-07T03:15:25.995Z,0.00
2022-10-07T03:16:26.060Z,0.00
2022-10-07T03:17:25.998Z,0.00
2022-10-07T03:18:26.042Z,0.00
2022-10-07T03:19:25.962Z,0.00
2022-10-07T03:20:25.951Z,0.00
2022-10-07T03:21:25.944Z,0.00
2022-10-07T03:22:25.993Z,0.00
2022-10-07T03:23:25.957Z,0.00
2022-10-07T03:24:25.918Z,0.00
2022-10-07T03:25:25.922Z,0.00
2022-10-07T03:26:25.899Z,0.00
2022-10-07T03:27:26.015Z,0.00
2022-10-07T03:28:25.974Z,0.00
2022-10-07T03:29:25.882Z,0.00
2022-10-07T03:30:25.871Z,0.00
2022-10-07T03:31:25.952Z,0.00
2022-10-07T03:32:25.917Z,0.00
2022-10-07T03:33:25.846Z,0.00
2022-10-07T03:34:25.836Z,0.00
2022-10-07T03:35:25.825Z,0.00
2022-10-07T03:36:25.827Z,0.00
2022-10-07T03:37:26.336Z,0.00
2022-10-07T03:38:25.804Z,0.00
2022-10-07T03:39:25.798Z,0.00
2022-10-07T03:40:25.792Z,0.00
2022-10-07T03:41:25.774Z,0.00
2022-10-07T03:42:25.788Z,0.00
2022-10-07T03:43:25.791Z,0.00
2022-10-07T03:44:25.756Z,0.00
2022-10-07T03:45:25.743Z,0.00
2022-10-07T03:46:25.754Z,0.00
2022-10-07T03:47:25.735Z,0.00
2022-10-07T03:48:25.747Z,0.00
2022-10-07T03:49:25.708Z,0.00
2022-10-07T03:50:25.695Z,0.00
2022-10-07T03:51:25.690Z,0.00
2022-10-07T03:52:25.716Z,0.00
2022-10-07T03:53:25.743Z,0.00
2022-10-07T03:54:25.669Z,0.00
2022-10-07T03:55:25.659Z,0.00
2022-10-07T03:56:25.652Z,0.00
2022-10-07T03:57:25.643Z,0.00
2022-10-07T03:58:25.670Z,0.00
2022-10-07T03:59:25.629Z,0.00
2022-10-07T04:00:25.623Z,0.00
2022-10-07T04:01:25.694Z,0.00
2022-10-07T04:02:25.605Z,0.00
2022-10-07T04:03:25.713Z,0.00
2022-10-07T04:04:25.589Z,0.00
2022-10-07T04:05:25.579Z,0.00
2022-10-07T04:06:25.578Z,0.00
2022-10-07T04:07:25.571Z,0.00
2022-10-07T04:08:25.588Z,0.00
2022-10-07T04:09:25.543Z,0.00
2022-10-07T04:10:25.540Z,0.00
2022-10-07T04:11:25.545Z,0.00
2022-10-07T04:12:25.521Z,0.00
2022-10-07T04:13:25.544Z,0.00
2022-10-07T04:14:25.532Z,0.00
2022-10-07T04:15:25.492Z,0.00
2022-10-07T04:16:25.538Z,0.00
2022-10-07T04:17:25.483Z,0.00
2022-10-07T04:18:25.522Z,0.00
2022-10-07T04:19:25.464Z,0.00
2022-10-07T04:20:25.460Z,0.00
2022-10-07T04:21:25.447Z,0.00
2022-10-07T04:22:25.436Z,0.00
2022-10-07T04:23:25.472Z,0.00
2022-10-07T04:24:25.424Z,0.00
2022-10-07T04:25:25.416Z,0.00
2022-10-07T04:26:25.413Z,0.00
2022-10-07T04:27:50.050Z,0.00
2022-10-07T04:28:27.471Z,0.00
2022-10-07T04:29:25.387Z,0.00
2022-10-07T04:30:25.373Z,0.00
2022-10-07T04:31:25.402Z,0.00
2022-10-07T04:32:25.352Z,0.00
2022-10-07T04:33:25.378Z,0.00
2022-10-07T04:34:25.346Z,0.00
2022-10-07T04:35:25.330Z,0.00
2022-10-07T04:36:25.332Z,0.00
2022-10-07T04:37:25.315Z,0.00
2022-10-07T04:38:28.241Z,0.00
2022-10-07T04:39:42.757Z,0.00
2022-10-07T04:40:27.290Z,0.00
2022-10-07T04:41:25.283Z,0.00
2022-10-07T04:42:25.270Z,0.00
2022-10-07T04:43:25.292Z,0.00
2022-10-07T04:44:25.254Z,0.00
2022-10-07T04:45:25.248Z,0.00
2022-10-07T04:46:25.349Z,0.00
2022-10-07T04:47:25.232Z,0.00
2022-10-07T04:48:25.267Z,0.00
2022-10-07T04:49:25.212Z,0.00
2022-10-07T04:50:25.208Z,0.00
2022-10-07T04:51:25.203Z,0.00
2022-10-07T04:52:25.194Z,0.00
2022-10-07T04:53:25.210Z,0.00
2022-10-07T04:54:25.172Z,0.00
2022-10-07T04:55:25.168Z,0.00
2022-10-07T04:56:25.168Z,0.00
2022-10-07T04:57:25.160Z,0.00
2022-10-07T04:58:25.175Z,0.00
2022-10-07T04:59:28.015Z,0.00
2022-10-07T05:00:26.129Z,0.00
2022-10-07T05:01:25.174Z,0.00
2022-10-07T05:02:25.125Z,0.00
2022-10-07T05:03:25.123Z,0.00
2022-10-07T05:04:25.092Z,0.00
2022-10-07T05:05:25.088Z,0.00
2022-10-07T05:06:25.186Z,0.00
2022-10-07T05:09:31.426Z,0.00
2022-10-07T05:10:31.420Z,0.00
2022-10-07T05:11:31.412Z,0.00
2022-10-07T05:12:31.400Z,0.00
2022-10-07T05:13:31.428Z,0.00
2022-10-07T05:14:31.388Z,0.00
2022-10-07T05:15:31.383Z,0.00
2022-10-07T05:16:31.451Z,0.00
2022-10-07T05:17:31.366Z,0.00
2022-10-07T05:18:31.377Z,0.00
2022-10-07T05:19:31.346Z,0.00
2022-10-07T05:20:31.332Z,0.00
2022-10-07T05:21:31.329Z,0.00
2022-10-07T05:22:31.319Z,0.00
2022-10-07T05:23:31.337Z,0.00
2022-10-07T05:24:31.302Z,0.00
2022-10-07T05:25:31.296Z,0.00
2022-10-07T05:26:32.435Z,0.00
2022-10-07T05:27:32.421Z,0.00
2022-10-07T05:28:32.522Z,5.62
2022-10-07T05:29:32.398Z,5.62
2022-10-07T05:30:32.408Z,5.62
2022-10-07T05:31:32.463Z,5.62
2022-10-07T05:32:32.382Z,5.62
2022-10-07T05:33:32.409Z,5.62
2022-10-07T05:34:32.362Z,5.62
2022-10-07T05:35:32.355Z,5.62
2022-10-07T05:36:32.346Z,5.62
2022-10-07T05:37:32.364Z,5.62
2022-10-07T05:38:32.366Z,5.62
2022-10-07T05:39:32.322Z,5.62
2022-10-07T05:40:32.311Z,5.62
2022-10-07T05:41:32.304Z,11.25
2022-10-07T05:42:32.293Z,11.25
2022-10-07T05:43:32.296Z,11.25
2022-10-07T05:44:32.305Z,11.25
2022-10-07T05:45:32.322Z,11.25
2022-10-07T05:46:32.255Z,16.88
2022-10-07T05:47:33.259Z,16.88
2022-10-07T05:48:36.635Z,16.88
2022-10-07T05:49:34.263Z,22.50
2022-10-07T05:50:32.228Z,22.50
2022-10-07T05:51:32.264Z,22.50
2022-10-07T05:52:32.233Z,22.50
2022-10-07T05:53:32.212Z,28.12
2022-10-07T05:54:32.223Z,33.75
2022-10-07T05:55:35.672Z,33.75
2022-10-07T05:56:33.182Z,33.75
2022-10-07T05:57:32.176Z,33.75
2022-10-07T05:58:32.167Z,39.38
2022-10-07T05:59:32.206Z,33.75
2022-10-07T06:00:32.144Z,39.38
2022-10-07T06:01:32.137Z,39.38
2022-10-07T06:02:33.193Z,39.38
2022-10-07T06:03:32.124Z,39.38
2022-10-07T06:04:32.146Z,45.00
2022-10-07T06:05:32.123Z,45.00
2022-10-07T06:06:32.095Z,50.62
2022-10-07T06:07:32.084Z,50.62
2022-10-07T06:08:32.087Z,50.62
2022-10-07T06:09:32.116Z,56.25
2022-10-07T06:10:32.061Z,61.88
2022-10-07T06:11:32.061Z,61.88
2022-10-07T06:13:04.606Z,67.50
2022-10-07T06:13:32.039Z,73.12
2022-10-07T06:14:32.136Z,78.75
2022-10-07T06:15:32.023Z,78.75
2022-10-07T06:16:32.087Z,84.38
2022-10-07T06:17:32.016Z,90.00
2022-10-07T06:18:32.002Z,90.00
2022-10-07T06:19:32.022Z,90.00
2022-10-07T06:20:31.990Z,90.00
2022-10-07T06:21:31.973Z,84.38
2022-10-07T06:22:31.985Z,84.38
2022-10-07T06:23:31.959Z,84.38
2022-10-07T06:24:31.981Z,90.00
2022-10-07T06:25:31.950Z,90.00
2022-10-07T06:26:31.938Z,90.00
2022-10-07T06:27:31.927Z,90.00
2022-10-07T06:28:31.981Z,90.00
2022-10-07T06:29:31.936Z,95.62
2022-10-07T06:30:31.912Z,95.62
2022-10-07T06:31:31.917Z,95.62
2022-10-07T06:32:31.886Z,95.62
2022-10-07T06:33:31.883Z,95.62
2022-10-07T06:34:31.923Z,95.62
2022-10-07T06:35:31.867Z,95.62
2022-10-07T06:36:31.852Z,95.62
2022-10-07T06:37:31.843Z,101.25
2022-10-07T06:38:31.839Z,101.25
2022-10-07T06:39:31.835Z,101.25
2022-10-07T06:40:31.851Z,101.25
2022-10-07T06:41:31.812Z,106.88
2022-10-07T06:42:31.807Z,112.50
2022-10-07T06:43:31.798Z,118.12
2022-10-07T06:44:31.792Z,118.12
2022-10-07T06:45:31.957Z,112.50
2022-10-07T06:46:31.842Z,118.12
2022-10-07T06:47:31.854Z,112.50
2022-10-07T06:48:31.749Z,112.50
2022-10-07T06:49:31.744Z,112.50
2022-10-07T06:50:31.802Z,112.50
2022-10-07T06:51:31.727Z,112.50
2022-10-07T06:52:31.719Z,118.12
2022-10-07T06:53:31.718Z,129.38
2022-10-07T06:54:32.703Z,135.00
2022-10-07T06:55:31.734Z,146.25
2022-10-07T06:56:31.690Z,157.50
2022-10-07T06:57:45.347Z,163.12
2022-10-07T06:58:34.204Z,168.75
2022-10-07T06:59:31.660Z,163.12
2022-10-07T07:00:31.779Z,157.50
2022-10-07T07:01:31.700Z,151.88
2022-10-07T07:02:32.717Z,168.75
2022-10-07T07:03:31.636Z,180.00
2022-10-07T07:04:31.629Z,191.25
2022-10-07T07:05:31.643Z,191.25
2022-10-07T07:06:31.612Z,202.50
2022-10-07T07:07:31.617Z,225.00
2022-10-07T07:08:31.600Z,230.62
2022-10-07T07:09:31.588Z,213.75
2022-10-07T07:10:31.603Z,241.88
2022-10-07T07:11:31.587Z,225.00
2022-10-07T07:12:31.558Z,236.25
2022-10-07T07:13:31.554Z,258.75
2022-10-07T07:14:31.548Z,264.38
2022-10-07T07:15:31.566Z,253.12
2022-10-07T07:16:31.564Z,275.62
2022-10-07T07:17:31.523Z,286.88
2022-10-07T07:18:31.530Z,275.62
2022-10-07T07:19:31.505Z,270.00
2022-10-07T07:20:31.523Z,241.88
2022-10-07T07:21:31.487Z,213.75
2022-10-07T07:22:31.482Z,225.00
2022-10-07T07:23:31.479Z,236.25
2022-10-07T07:24:31.465Z,213.75
2022-10-07T07:25:31.479Z,219.38
2022-10-07T07:26:31.451Z,236.25
2022-10-07T07:27:31.446Z,270.00
2022-10-07T07:28:31.545Z,264.38
2022-10-07T07:29:31.418Z,275.62
2022-10-07T07:30:31.519Z,281.25
2022-10-07T07:31:31.414Z,315.00
2022-10-07T07:32:31.408Z,343.12
2022-10-07T07:33:31.386Z,348.75
2022-10-07T07:34:31.374Z,365.62
2022-10-07T07:35:31.398Z,399.38
2022-10-07T07:36:31.366Z,399.38
2022-10-07T07:37:31.355Z,410.62
2022-10-07T07:38:31.349Z,157.50
2022-10-07T07:39:31.343Z,140.62
2022-10-07T07:40:31.371Z,135.00
2022-10-07T07:41:31.328Z,123.75
2022-10-07T07:42:31.314Z,140.62
2022-10-07T07:43:31.333Z,320.62
2022-10-07T07:44:34.744Z,680.62
2022-10-07T07:45:32.341Z,753.75
2022-10-07T07:46:31.283Z,759.38
2022-10-07T07:47:31.274Z,759.38
2022-10-07T07:48:31.260Z,669.38
2022-10-07T07:49:31.255Z,748.12
2022-10-07T07:50:31.247Z,798.75
2022-10-07T07:51:31.263Z,860.62
2022-10-07T07:52:31.231Z,759.38
2022-10-07T07:53:31.226Z,697.50
2022-10-07T07:54:31.223Z,590.62
2022-10-07T07:55:31.211Z,585.00
2022-10-07T07:56:31.231Z,669.38
2022-10-07T07:57:31.190Z,714.38
2022-10-07T07:58:31.181Z,691.88
2022-10-07T07:59:31.179Z,663.75
2022-10-07T08:00:31.174Z,658.12
2022-10-07T08:01:31.221Z,635.62
2022-10-07T08:02:31.214Z,579.38
2022-10-07T08:03:31.143Z,568.12
2022-10-07T08:04:31.133Z,573.75
2022-10-07T08:05:31.123Z,568.12
2022-10-07T08:06:31.147Z,613.12
2022-10-07T08:07:31.108Z,849.38
2022-10-07T08:08:31.102Z,815.62
2022-10-07T08:09:31.100Z,663.75
2022-10-07T08:10:31.090Z,703.12
2022-10-07T08:11:31.111Z,894.38
2022-10-07T08:12:31.075Z,928.12
2022-10-07T08:13:31.058Z,1012.50
2022-10-07T08:14:31.053Z,900.00
2022-10-07T08:15:31.085Z,978.75
2022-10-07T08:16:31.066Z,832.50
2022-10-07T08:17:31.030Z,742.50
2022-10-07T08:18:31.018Z,680.62
2022-10-07T08:19:31.018Z,776.25
2022-10-07T08:20:31.004Z,843.75
2022-10-07T08:21:31.024Z,961.88
2022-10-07T08:22:30.993Z,1186.88
2022-10-07T08:23:30.979Z,1209.38
2022-10-07T08:24:34.117Z,1288.12
2022-10-07T08:25:30.966Z,1085.62
2022-10-07T08:26:30.991Z,1074.38
2022-10-07T08:27:30.946Z,1344.38
2022-10-07T08:28:31.073Z,1890.00
2022-10-07T08:29:30.928Z,1271.25
2022-10-07T08:30:30.935Z,1282.50
2022-10-07T08:31:30.935Z,1254.38
2022-10-07T08:32:30.901Z,1501.88
2022-10-07T08:33:30.889Z,1366.88
2022-10-07T08:34:30.892Z,1226.25
2022-10-07T08:35:30.874Z,1299.38
2022-10-07T08:36:30.896Z,1760.62
2022-10-07T08:37:30.859Z,3178.12
2022-10-07T08:38:30.856Z,3386.25
2022-10-07T08:39:30.844Z,2784.38
2022-10-07T08:40:30.830Z,1805.62
2022-10-07T08:41:30.853Z,2137.50
2022-10-07T08:42:30.815Z,2227.50
2022-10-07T08:43:30.808Z,4314.38
2022-10-07T08:44:30.802Z,3645.00
2022-10-07T08:45:30.792Z,1743.75
2022-10-07T08:46:30.864Z,2154.38
2022-10-07T08:47:30.775Z,3172.50
2022-10-07T08:48:30.770Z,4438.12
2022-10-07T08:49:30.768Z,4145.62
2022-10-07T08:50:30.749Z,2188.12
2022-10-07T08:51:30.773Z,3515.62
2022-10-07T08:52:30.769Z,3127.50
2022-10-07T08:53:49.757Z,4140.00
2022-10-07T08:54:30.729Z,4477.50
2022-10-07T08:55:30.733Z,4466.25
2022-10-07T08:56:30.711Z,4381.88
2022-10-07T08:57:30.719Z,4449.38
2022-10-07T08:58:30.704Z,4381.88
2022-10-07T08:59:30.687Z,4286.25
2022-10-07T09:00:30.673Z,4455.00
2022-10-07T09:01:30.702Z,4460.62
2022-10-07T09:02:30.733Z,4359.38
2022-10-07T09:03:30.649Z,4320.00
2022-10-07T09:04:30.643Z,4246.88
2022-10-07T09:05:30.652Z,4275.00
2022-10-07T09:06:30.624Z,4348.12
2022-10-07T09:07:30.650Z,4286.25
2022-10-07T09:08:30.612Z,4393.12
2022-10-07T09:09:30.604Z,4342.50
2022-10-07T09:10:30.596Z,4252.50
2022-10-07T09:11:30.595Z,4381.88
2022-10-07T09:12:30.606Z,4455.00
2022-10-07T09:13:30.583Z,4387.50
2022-10-07T09:14:30.572Z,4387.50
2022-10-07T09:15:30.623Z,4303.12
2022-10-07T09:16:30.552Z,4314.38
2022-10-07T09:17:34.882Z,4443.75
2022-10-07T09:18:31.537Z,4353.75
2022-10-07T09:19:30.531Z,4185.00
2022-10-07T09:20:30.524Z,4320.00
2022-10-07T09:21:30.522Z,4258.12
2022-10-07T09:22:30.542Z,4314.38
2022-10-07T09:23:30.499Z,4263.75
2022-10-07T09:24:30.536Z,4325.62
2022-10-07T09:25:30.482Z,4291.88
2022-10-07T09:26:30.474Z,4314.38
2022-10-07T09:27:30.506Z,4241.25
2022-10-07T09:28:30.552Z,4280.62
2022-10-07T09:29:30.460Z,4314.38
2022-10-07T09:30:30.450Z,4252.50
2022-10-07T09:31:30.489Z,4055.62
2022-10-07T09:32:30.469Z,4140.00
2022-10-07T09:33:30.430Z,4100.62
2022-10-07T09:34:30.425Z,4044.38
2022-10-07T09:35:30.455Z,3954.38
2022-10-07T09:36:30.404Z,3920.62
2022-10-07T09:37:30.441Z,4145.62
2022-10-07T09:38:30.406Z,4168.12
2022-10-07T09:39:30.395Z,4128.75
2022-10-07T09:40:30.383Z,4218.75
2022-10-07T09:41:31.229Z,4286.25
2022-10-07T09:42:31.414Z,4308.75
2022-10-07T09:43:30.365Z,4106.25
2022-10-07T09:44:30.360Z,4173.75
2022-10-07T09:45:36.448Z,4263.75
2022-10-07T09:46:43.793Z,4275.00
2022-10-07T09:47:31.407Z,4348.12
2022-10-07T09:48:30.641Z,4331.25
2022-10-07T09:49:30.876Z,4235.62
2022-10-07T09:50:31.042Z,4185.00
2022-10-07T09:51:32.560Z,4286.25
2022-10-07T09:52:31.974Z,4308.75
2022-10-07T09:53:37.545Z,4314.38
2022-10-07T09:54:31.378Z,4308.75
2022-10-07T09:55:31.377Z,4325.62
2022-10-07T09:56:30.951Z,4353.75
2022-10-07T09:57:31.113Z,4235.62
2022-10-07T09:59:04.197Z,4123.12
2022-10-07T09:59:31.504Z,4230.00
2022-10-07T10:00:30.639Z,4342.50
2022-10-07T10:01:30.804Z,4387.50
2022-10-07T10:02:30.901Z,4359.38
2022-10-07T10:03:30.503Z,4286.25
2022-10-07T10:04:30.346Z,4303.12
2022-10-07T10:05:30.345Z,4241.25
2022-10-07T10:06:30.337Z,4224.38
2022-10-07T10:07:30.368Z,4269.38
2022-10-07T10:08:30.387Z,4286.25
2022-10-07T10:09:30.409Z,4218.75
2022-10-07T10:10:30.256Z,4235.62
2022-10-07T10:11:32.083Z,4140.00
2022-10-07T10:12:30.297Z,3926.25
2022-10-07T10:13:30.324Z,3735.00
2022-10-07T10:14:49.151Z,3960.00
2022-10-07T10:15:30.254Z,3819.38
2022-10-07T10:16:30.328Z,3920.62
2022-10-07T10:17:30.241Z,4072.50
2022-10-07T10:18:30.327Z,3808.12
2022-10-07T10:19:34.904Z,3796.88
2022-10-07T10:20:32.315Z,4190.62
2022-10-07T10:21:30.415Z,4190.62
2022-10-07T10:22:30.272Z,4111.88
2022-10-07T10:23:30.291Z,4207.50
2022-10-07T10:24:30.333Z,4207.50
2022-10-07T10:25:31.228Z,4168.12
2022-10-07T10:26:33.932Z,4078.12
2022-10-07T10:27:31.167Z,4089.38
2022-10-07T10:28:30.281Z,4168.12
2022-10-07T10:29:30.212Z,4241.25
2022-10-07T10:30:30.236Z,4185.00
2022-10-07T10:31:30.254Z,4140.00
2022-10-07T10:32:30.171Z,4168.12
2022-10-07T10:33:30.390Z,4280.62
2022-10-07T10:34:30.157Z,4263.75
2022-10-07T10:35:30.200Z,4140.00
2022-10-07T10:36:30.158Z,4089.38
2022-10-07T10:37:30.195Z,4061.25
2022-10-07T10:38:30.218Z,4078.12
2022-10-07T10:39:30.198Z,4185.00
2022-10-07T10:40:30.310Z,4151.25
2022-10-07T10:41:30.212Z,3875.62
2022-10-07T10:42:31.273Z,4050.00
2022-10-07T10:43:30.224Z,4173.75
2022-10-07T10:44:30.201Z,4213.12
2022-10-07T10:45:30.246Z,4168.12
2022-10-07T10:46:30.289Z,4123.12
2022-10-07T10:47:30.094Z,4050.00
2022-10-07T10:48:30.160Z,4005.00
2022-10-07T10:49:30.190Z,3982.50
2022-10-07T10:50:30.139Z,3965.62
2022-10-07T10:51:30.149Z,3960.00
2022-10-07T10:52:30.167Z,4027.50
2022-10-07T10:53:30.326Z,3976.88
2022-10-07T10:54:30.192Z,4050.00
2022-10-07T10:55:30.204Z,3999.38
2022-10-07T10:56:30.333Z,4027.50
2022-10-07T10:57:30.204Z,4055.62
2022-10-07T10:58:30.237Z,4033.12
2022-10-07T10:59:30.258Z,3943.12
2022-10-07T11:00:30.318Z,3948.75
2022-10-07T11:01:30.293Z,4033.12
2022-10-07T11:02:30.401Z,4055.62
2022-10-07T11:03:33.519Z,4005.00
2022-10-07T11:04:31.281Z,3943.12
2022-10-07T11:05:30.396Z,3943.12
2022-10-07T11:06:30.253Z,4050.00
2022-10-07T11:07:31.850Z,4111.88
2022-10-07T11:08:33.370Z,4050.00
2022-10-07T11:09:33.708Z,4117.50
2022-10-07T11:10:44.354Z,4111.88
2022-10-07T11:11:30.115Z,4100.62
2022-10-07T11:12:30.481Z,4078.12
2022-10-07T11:13:38.446Z,4044.38
2022-10-07T11:14:30.192Z,4055.62
2022-10-07T11:15:30.193Z,4095.00
2022-10-07T11:16:30.301Z,4050.00
2022-10-07T11:17:30.681Z,4089.38
2022-10-07T11:18:31.339Z,4078.12
2022-10-07T11:19:34.469Z,4038.75
2022-10-07T11:20:30.091Z,4083.75
2022-10-07T11:21:30.969Z,4145.62
2022-10-07T11:22:29.977Z,4145.62
2022-10-07T11:23:29.974Z,4117.50
2022-10-07T11:24:30.139Z,4201.88
2022-10-07T11:25:29.973Z,4213.12
2022-10-07T11:26:32.338Z,4201.88
2022-10-07T11:27:31.009Z,4173.75
2022-10-07T11:28:30.060Z,4218.75
2022-10-07T11:29:29.966Z,4173.75
2022-10-07T11:30:29.883Z,4179.38
2022-10-07T11:31:30.016Z,4128.75
2022-10-07T11:32:29.968Z,4168.12
2022-10-07T11:33:30.121Z,4196.25
2022-10-07T11:34:29.922Z,4128.75
2022-10-07T11:35:30.116Z,4123.12
2022-10-07T11:36:30.140Z,4173.75
2022-10-07T11:37:30.081Z,4230.00
2022-10-07T11:38:30.292Z,4201.88
2022-10-07T11:39:30.021Z,4151.25
2022-10-07T11:40:30.029Z,4156.88
2022-10-07T11:41:30.257Z,4190.62
2022-10-07T11:42:30.521Z,4134.38
2022-10-07T11:43:30.904Z,4123.12
2022-10-07T11:44:30.069Z,4061.25
2022-10-07T11:45:38.234Z,3999.38
2022-10-07T11:46:30.785Z,3988.12
2022-10-07T11:47:30.331Z,4027.50
2022-10-07T11:48:30.191Z,3870.00
2022-10-07T11:49:30.322Z,3729.38
2022-10-07T11:50:30.203Z,3397.50
2022-10-07T11:51:30.259Z,3408.75
2022-10-07T11:52:30.272Z,3555.00
2022-10-07T11:53:30.171Z,3493.12
2022-10-07T11:54:30.404Z,3375.00
2022-10-07T11:55:31.220Z,3290.62
2022-10-07T11:56:30.176Z,3076.88
2022-10-07T11:57:30.217Z,2677.50
2022-10-07T11:58:30.390Z,2103.75
2022-10-07T11:59:30.227Z,1788.75
2022-10-07T12:00:30.408Z,1755.00
2022-10-07T12:01:30.467Z,1771.88
2022-10-07T12:02:30.760Z,1777.50
2022-10-07T12:03:31.206Z,1800.00
2022-10-07T12:04:30.964Z,1867.50
2022-10-07T12:05:30.543Z,1951.88
2022-10-07T12:06:30.722Z,2098.12
2022-10-07T12:07:30.980Z,2199.38
2022-10-07T12:08:33.099Z,2120.62
2022-10-07T12:09:31.331Z,2041.88
2022-10-07T12:10:31.813Z,2002.50
2022-10-07T12:11:32.973Z,1974.38
2022-10-07T12:12:32.584Z,1940.62
2022-10-07T12:13:31.124Z,1929.38
2022-10-07T12:14:32.078Z,1861.88
2022-10-07T12:15:34.286Z,1822.50
2022-10-07T12:16:35.755Z,1861.88
2022-10-07T12:17:32.976Z,1861.88
2022-10-07T12:18:32.659Z,1788.75
2022-10-07T12:19:34.278Z,1743.75
2022-10-07T12:20:32.311Z,1721.25
2022-10-07T12:21:33.776Z,1721.25
2022-10-07T12:22:31.829Z,1738.12
2022-10-07T12:23:31.174Z,1766.25
2022-10-07T12:24:31.870Z,1749.38
2022-10-07T12:25:31.781Z,1698.75
2022-10-07T12:26:30.122Z,1732.50
2022-10-07T12:27:30.352Z,1732.50
2022-10-07T12:28:30.425Z,1693.12
2022-10-07T12:29:32.467Z,1726.88
2022-10-07T12:30:33.248Z,1726.88
2022-10-07T12:31:31.526Z,1704.38
2022-10-07T12:32:33.331Z,1760.62
2022-10-07T12:33:33.141Z,1597.50
2022-10-07T12:34:31.640Z,1710.00
2022-10-07T12:35:32.403Z,1777.50
2022-10-07T12:36:33.196Z,1805.62
2022-10-07T12:37:33.215Z,1715.62
2022-10-07T12:38:31.836Z,1906.88
2022-10-07T12:39:32.812Z,1963.12
2022-10-07T12:40:31.737Z,2053.12
2022-10-07T12:41:31.491Z,2070.00
2022-10-07T12:42:32.313Z,2002.50
2022-10-07T12:43:33.190Z,2030.62
2022-10-07T12:44:34.588Z,2098.12
2022-10-07T12:45:35.193Z,2289.38